Time;durP1;ratioP1;P1;durP2;ratioP2;P2;SDS_P1;SDS_P2;PMS_P1;PMS_P2;Temp;Humidity;BMP_temperature;BMP_pressure;BME280_temperature;BME280_humidity;BME280_pressure;Samples;Min_cycle;Max_cycle;Signal;HPM_P1;HPM_P2
2022/03/18 00:00:17;;;;;;;18.20;5.95;;;2.00;99.90;;;;;;4991939;28;20066;-56
2022/03/18 00:02:45;;;;;;;15.80;5.57;;;1.70;99.90;;;;;;4990999;28;20046;-56
2022/03/18 00:05:11;;;;;;;17.88;5.60;;;;;;;;;;4990943;28;20049;-55
2022/03/18 00:07:40;;;;;;;14.23;5.25;;;1.80;99.90;;;;;;4993043;28;20045;-52
2022/03/18 00:10:07;;;;;;;17.55;6.07;;;1.70;99.90;;;;;;4992046;28;20771;-53
2022/03/18 00:12:33;;;;;;;18.92;7.60;;;;;;;;;;4993297;28;20222;-56
2022/03/18 00:15:01;;;;;;;16.15;5.88;;;1.10;99.90;;;;;;4993436;28;20046;-55
2022/03/18 00:17:27;;;;;;;23.38;6.75;;;;;;;;;;4992672;28;21026;-56
2022/03/18 00:19:53;;;;;;;15.18;6.07;;;;;;;;;;4993196;28;20383;-52
2022/03/18 00:22:21;;;;;;;19.30;7.22;;;1.90;99.90;;;;;;4993435;28;20525;-52
2022/03/18 00:24:47;;;;;;;19.27;5.88;;;;;;;;;;4991994;28;20038;-50
2022/03/18 00:27:13;;;;;;;16.98;6.80;;;;;;;;;;4992750;28;20045;-54
2022/03/18 00:29:39;;;;;;;13.35;6.03;;;;;;;;;;4992372;28;20045;-52
2022/03/18 00:32:07;;;;;;;19.38;6.78;;;2.00;99.90;;;;;;4992732;28;20125;-54
2022/03/18 00:34:33;;;;;;;19.63;6.68;;;;;;;;;;4975244;28;20431;-54
2022/03/18 00:36:59;;;;;;;22.35;6.80;;;;;;;;;;4992454;28;20038;-53
2022/03/18 00:39:25;;;;;;;19.15;7.55;;;;;;;;;;4992125;28;20041;-55
2022/03/18 00:41:51;;;;;;;17.50;6.85;;;;;;;;;;4992150;28;20046;-56
2022/03/18 00:44:17;;;;;;;20.10;6.95;;;;;;;;;;4974412;28;20048;-56
2022/03/18 00:46:44;;;;;;;15.25;7.25;;;;;;;;;;4994848;28;20049;-55
2022/03/18 00:52:05;;;;;;;22.90;7.88;;;1.80;99.90;;;;;;4996233;28;20050;-52
2022/03/18 00:54:39;;;;;;;22.77;7.90;;;1.80;99.90;;;;;;4995373;28;20048;-54
2022/03/18 00:57:06;;;;;;;20.20;8.40;;;;;;;;;;4994841;28;20069;-54
2022/03/18 00:59:33;;;;;;;20.50;8.77;;;;;;;;;;4994705;28;20066;-54
2022/03/18 01:01:59;;;;;;;18.25;8.25;;;;;;;;;;4978584;28;20081;-55
2022/03/18 01:04:28;;;;;;;24.33;8.55;;;1.90;99.90;;;;;;4995041;28;20034;-56
2022/03/18 01:06:54;;;;;;;24.85;8.30;;;;;;;;;;4995626;28;20068;-55
2022/03/18 01:09:21;;;;;;;21.65;7.93;;;;;;;;;;4994669;28;20042;-55
2022/03/18 01:11:48;;;;;;;23.67;10.80;;;;;;;;;;4995244;28;20097;-55
2022/03/18 01:14:14;;;;;;;18.77;6.88;;;;;;;;;;4995466;28;20045;-55
2022/03/18 01:16:40;;;;;;;22.50;8.40;;;;;;;;;;4995652;28;20043;-53
2022/03/18 01:19:06;;;;;;;23.80;10.05;;;;;;;;;;4995776;28;20128;-55
2022/03/18 01:21:32;;;;;;;22.92;9.02;;;;;;;;;;4995393;28;20683;-56
2022/03/18 01:23:58;;;;;;;25.13;9.60;;;;;;;;;;4995440;28;20042;-55
2022/03/18 01:26:24;;;;;;;18.75;8.90;;;;;;;;;;4995461;28;20056;-55
2022/03/18 01:28:53;;;;;;;22.92;9.02;;;2.30;99.90;;;;;;4995108;28;20069;-54
2022/03/18 01:31:20;;;;;;;23.38;8.80;;;;;;;;;;4995988;28;20046;-53
2022/03/18 01:33:46;;;;;;;22.80;9.30;;;;;;;;;;4995627;28;20245;-53
2022/03/18 01:36:13;;;;;;;23.50;10.02;;;;;;;;;;4995869;28;20034;-54
2022/03/18 01:38:39;;;;;;;20.77;8.05;;;;;;;;;;4995497;28;20050;-55
2022/03/18 01:41:05;;;;;;;21.50;8.57;;;;;;;;;;4995496;28;20053;-55
2022/03/18 01:43:44;;;;;;;19.70;8.60;;;2.60;99.90;;;;;;4995379;28;20149;-55
2022/03/18 01:46:11;;;;;;;24.02;9.52;;;;;;;;;;4977880;28;20054;-54
2022/03/18 01:48:37;;;;;;;19.23;8.60;;;;;;;;;;4995127;28;20053;-55
2022/03/18 01:51:05;;;;;;;16.35;7.28;;;2.40;99.90;;;;;;4994941;28;20915;-54
2022/03/18 01:53:32;;;;;;;17.63;8.00;;;;;;;;;;4994466;28;20045;-56
2022/03/18 01:55:58;;;;;;;19.55;8.02;;;;;;;;;;4994641;28;20048;-54
2022/03/18 01:58:24;;;;;;;24.27;8.52;;;;;;;;;;4993160;28;20916;-55
2022/03/18 02:00:50;;;;;;;19.23;8.00;;;;;;;;;;4994427;28;20050;-54
2022/03/18 02:03:17;;;;;;;21.38;7.93;;;;;;;;;;4994128;28;20077;-54
2022/03/18 02:05:43;;;;;;;17.35;7.85;;;;;;;;;;4994184;28;20133;-54
2022/03/18 02:08:10;;;;;;;20.73;9.10;;;;;;;;;;4993569;28;20070;-55
2022/03/18 02:10:36;;;;;;;32.08;9.27;;;;;;;;;;4993815;28;20553;-54
2022/03/18 02:13:02;;;;;;;18.98;8.18;;;;;;;;;;4994597;28;20048;-55
2022/03/18 02:15:28;;;;;;;19.40;8.85;;;;;;;;;;4994798;28;20131;-53
2022/03/18 02:17:56;;;;;;;23.38;8.25;;;2.30;99.90;;;;;;4976711;28;20053;-54
2022/03/18 02:20:22;;;;;;;27.52;8.32;;;;;;;;;;4994147;28;20558;-55
2022/03/18 02:22:48;;;;;;;17.58;7.35;;;;;;;;;;4993440;28;20254;-54
2022/03/18 02:25:16;;;;;;;19.17;8.35;;;2.20;99.90;;;;;;4975274;28;20144;-54
2022/03/18 02:28:01;;;;;;;16.13;7.53;;;2.40;99.90;;;;;;4993597;28;20046;-54
2022/03/18 02:30:30;;;;;;;19.70;7.88;;;2.50;99.90;;;;;;4976205;28;20033;-54
2022/03/18 02:32:57;;;;;;;16.80;8.70;;;;;;;;;;4993717;28;20191;-54
2022/03/18 02:35:23;;;;;;;17.90;9.38;;;;;;;;;;4993464;28;20034;-54
2022/03/18 02:37:49;;;;;;;19.40;7.50;;;;;;;;;;4993202;28;20786;-53
2022/03/18 02:40:16;;;;;;;21.67;8.13;;;2.60;99.90;;;;;;4994199;28;20045;-55
2022/03/18 02:42:44;;;;;;;19.75;8.48;;;;;;;;;;4975076;28;20053;-53
2022/03/18 02:45:10;;;;;;;23.63;7.80;;;;;;;;;;4993224;28;20045;-54
2022/03/18 02:47:38;;;;;;;18.45;7.65;;;2.40;99.90;;;;;;4993600;28;20053;-55
2022/03/18 02:50:05;;;;;;;20.80;7.95;;;2.40;99.90;;;;;;4994683;28;20526;-51
2022/03/18 02:52:31;;;;;;;19.10;7.70;;;;;;;;;;4995338;28;20402;-54
2022/03/18 02:54:57;;;;;;;17.88;8.10;;;;;;;;;;4994215;28;20038;-53
2022/03/18 02:57:23;;;;;;;17.83;7.70;;;;;;;;;;4994208;28;20564;-52
2022/03/18 02:59:49;;;;;;;22.67;8.27;;;;;;;;;;4993531;28;20354;-52
2022/03/18 03:02:15;;;;;;;19.50;9.45;;;;;;;;;;4994953;28;20041;-54
2022/03/18 03:10:14;;;;;;;17.17;7.93;;;2.20;99.90;;;;;;4993957;28;20053;-53
2022/03/18 03:12:40;;;;;;;17.67;7.93;;;;;;;;;;4993436;28;20042;-52
2022/03/18 03:15:07;;;;;;;19.20;8.38;;;2.20;99.90;;;;;;4993648;28;20050;-51
2022/03/18 03:17:33;;;;;;;21.45;8.23;;;;;;;;;;4991586;28;20063;-52
2022/03/18 03:20:01;;;;;;;21.20;9.32;;;2.20;99.90;;;;;;4992593;28;20041;-54
2022/03/18 03:22:30;;;;;;;18.23;8.07;;;2.30;99.90;;;;;;4992851;28;20681;-51
2022/03/18 03:24:56;;;;;;;19.13;7.88;;;2.20;99.90;;;;;;4976343;28;20042;-51
2022/03/18 03:27:30;;;;;;;19.58;10.20;;;2.30;99.90;;;;;;4993034;28;20140;-53
2022/03/18 03:30:07;;;;;;;17.90;8.85;;;2.30;99.90;;;;;;4992720;28;20053;-50
2022/03/18 03:32:35;;;;;;;15.13;8.45;;;2.20;99.90;;;;;;4992132;28;20045;-51
2022/03/18 03:35:01;;;;;;;19.80;8.70;;;;;;;;;;4991983;28;21034;-51
2022/03/18 03:37:28;;;;;;;24.02;9.35;;;2.30;99.90;;;;;;4992821;28;20092;-51
2022/03/18 03:39:54;;;;;;;22.45;8.75;;;;;;;;;;4992803;28;20049;-51
2022/03/18 03:42:22;;;;;;;21.73;8.68;;;2.20;99.90;;;;;;4991235;28;20096;-52
2022/03/18 03:44:48;;;;;;;16.92;8.13;;;;;;;;;;4991925;28;20049;-51
2022/03/18 03:47:15;;;;;;;16.17;9.48;;;;;;;;;;4992539;28;20513;-52
2022/03/18 03:49:44;;;;;;;18.48;8.43;;;2.30;99.90;;;;;;4992961;28;20053;-53
2022/03/18 03:52:10;;;;;;;23.38;9.48;;;;;;;;;;4992065;28;20148;-52
2022/03/18 03:54:45;;;;;;;19.52;8.95;;;;;;;;;;4992400;28;20499;-52
2022/03/18 03:57:15;;;;;;;16.08;8.90;;;2.40;99.90;;;;;;4991739;28;20068;-49
2022/03/18 03:59:41;;;;;;;18.83;9.80;;;;;;;;;;4990871;28;20081;-50
2022/03/18 04:02:08;;;;;;;22.52;10.10;;;;;;;;;;4991671;28;20060;-50
2022/03/18 04:04:34;;;;;;;19.13;9.00;;;;;;;;;;4991995;28;20633;-51
2022/03/18 04:07:00;;;;;;;21.13;9.70;;;;;;;;;;4992476;28;20046;-50
2022/03/18 04:09:27;;;;;;;25.48;10.23;;;;;;;;;;4975356;28;20053;-53
2022/03/18 04:11:53;;;;;;;13.98;8.65;;;;;;;;;;4992565;28;20053;-49
2022/03/18 04:14:20;;;;;;;20.55;9.13;;;2.80;99.90;;;;;;4991809;28;20038;-52
2022/03/18 04:16:47;;;;;;;19.08;8.85;;;;;;;;;;4993787;28;20824;-53
2022/03/18 04:19:13;;;;;;;18.80;9.85;;;;;;;;;;4992891;28;20046;-52
2022/03/18 04:21:39;;;;;;;17.25;9.07;;;;;;;;;;4982024;28;20042;-51
2022/03/18 04:24:07;;;;;;;16.27;8.93;;;3.10;99.90;;;;;;4998833;28;21998;-50
2022/03/18 04:26:33;;;;;;;16.77;8.27;;;;;;;;;;5000577;28;20529;-56
2022/03/18 04:28:59;;;;;;;20.65;9.63;;;;;;;;;;4982485;28;20054;-51
2022/03/18 04:31:26;;;;;;;17.02;9.15;;;;;;;;;;4998048;28;20041;-53
2022/03/18 04:33:52;;;;;;;20.17;8.93;;;;;;;;;;4998238;28;20451;-55
2022/03/18 04:36:18;;;;;;;19.95;8.88;;;;;;;;;;4998442;28;20030;-54
2022/03/18 04:38:44;;;;;;;17.77;10.10;;;;;;;;;;4998481;28;20057;-54
2022/03/18 04:41:10;;;;;;;17.45;8.57;;;;;;;;;;4998133;28;20057;-52
2022/03/18 04:43:36;;;;;;;22.42;9.68;;;;;;;;;;4998978;28;20081;-54
2022/03/18 04:46:03;;;;;;;18.55;8.45;;;3.40;99.90;;;;;;4997779;28;20029;-53
2022/03/18 04:48:29;;;;;;;17.27;9.50;;;;;;;;;;4997746;28;20042;-50
2022/03/18 04:50:55;;;;;;;18.45;8.80;;;;;;;;;;4998529;28;20400;-52
2022/03/18 04:53:21;;;;;;;22.02;9.60;;;;;;;;;;4998335;28;20065;-53
2022/03/18 04:55:47;;;;;;;18.70;8.55;;;;;;;;;;4997207;28;20045;-51
2022/03/18 04:58:14;;;;;;;18.92;8.45;;;;;;;;;;4997037;28;20041;-49
2022/03/18 05:00:43;;;;;;;13.25;8.00;;;;;;;;;;4997835;28;20143;-50
2022/03/18 05:03:12;;;;;;;16.35;8.23;;;;;;;;;;4997270;28;20462;-52
2022/03/18 05:05:38;;;;;;;19.08;8.10;;;3.20;99.90;;;;;;4998142;28;20049;-52
2022/03/18 05:08:05;;;;;;;21.70;9.10;;;;;;;;;;4998682;28;20030;-52
2022/03/18 05:10:31;;;;;;;18.85;8.40;;;;;;;;;;4997733;28;20124;-53
2022/03/18 05:12:57;;;;;;;17.95;8.13;;;;;;;;;;4999077;28;20042;-53
2022/03/18 05:15:23;;;;;;;17.70;9.13;;;2.80;99.90;;;;;;4996571;28;20049;-50
2022/03/18 05:17:51;;;;;;;20.17;8.77;;;2.70;99.90;;;;;;4998367;28;20340;-53
2022/03/18 05:20:18;;;;;;;18.63;8.65;;;2.50;99.90;;;;;;4997685;28;20048;-53
2022/03/18 05:22:45;;;;;;;25.33;10.68;;;;;;;;;;4999153;28;20045;-52
2022/03/18 05:25:12;;;;;;;15.35;8.77;;;2.60;99.90;;;;;;4997359;28;20092;-52
2022/03/18 05:27:44;;;;;;;14.65;8.30;;;2.50;99.90;;;;;;4997942;28;20046;-52
2022/03/18 05:30:15;;;;;;;13.15;7.93;;;2.50;99.90;;;;;;4997926;28;20084;-52
2022/03/18 05:32:41;;;;;;;18.33;8.93;;;;;;;;;;4992942;28;20056;-49
2022/03/18 05:35:10;;;;;;;16.60;8.82;;;2.30;99.90;;;;;;4994377;28;20092;-51
2022/03/18 05:37:36;;;;;;;19.13;8.70;;;;;;;;;;4994914;28;20503;-52
2022/03/18 05:40:02;;;;;;;17.48;8.73;;;;;;;;;;4995608;28;20037;-48
2022/03/18 05:42:30;;;;;;;18.27;9.60;;;2.20;99.90;;;;;;4995125;28;20044;-52
2022/03/18 05:44:56;;;;;;;17.30;8.27;;;;;;;;;;4994790;28;20034;-49
2022/03/18 05:47:22;;;;;;;15.90;8.05;;;;;;;;;;4994351;28;20609;-52
2022/03/18 05:49:49;;;;;;;12.52;6.45;;;2.00;99.90;;;;;;4994601;28;20046;-52
2022/03/18 05:52:15;;;;;;;16.23;7.43;;;;;;;;;;4995754;28;20074;-50
2022/03/18 05:54:41;;;;;;;21.13;8.55;;;;;;;;;;4994470;28;20560;-51
2022/03/18 05:57:11;;;;;;;17.10;8.32;;;2.00;99.90;;;;;;4993447;28;20088;-49
2022/03/18 05:59:37;;;;;;;14.30;7.60;;;;;;;;;;4993690;28;20126;-52
2022/03/18 06:02:03;;;;;;;16.08;8.85;;;2.10;99.90;;;;;;4995208;28;20045;-50
2022/03/18 06:04:31;;;;;;;15.70;7.50;;;;;;;;;;4994322;28;20239;-52
2022/03/18 06:06:58;;;;;;;17.67;9.20;;;;;;;;;;4976630;28;20042;-50
2022/03/18 06:12:10;;;;;;;18.50;9.32;;;2.20;99.90;;;;;;4995205;28;20049;-50
2022/03/18 06:14:36;;;;;;;16.50;8.32;;;;;;;;;;4994034;28;20125;-50
2022/03/18 06:17:04;;;;;;;19.98;8.77;;;2.70;99.90;;;;;;4993996;28;20494;-51
2022/03/18 06:19:32;;;;;;;16.70;9.15;;;3.00;99.90;;;;;;4974334;28;20054;-53
2022/03/18 06:21:59;;;;;;;18.27;9.57;;;;;;;;;;4994328;28;20112;-51
2022/03/18 06:24:25;;;;;;;17.77;9.13;;;;;;;;;;4992975;28;20049;-52
2022/03/18 06:26:53;;;;;;;20.80;10.15;;;3.50;99.90;;;;;;4993192;28;20041;-51
2022/03/18 06:29:20;;;;;;;12.50;7.57;;;;;;;;;;4993002;28;20045;-50
2022/03/18 06:31:46;;;;;;;15.48;7.63;;;;;;;;;;4992637;28;20054;-54
2022/03/18 06:34:12;;;;;;;13.15;6.80;;;;;;;;;;4974302;28;20845;-53
2022/03/18 06:36:39;;;;;;;14.93;7.70;;;4.50;99.90;;;;;;4991965;28;20069;-50
2022/03/18 06:39:05;;;;;;;14.38;7.82;;;4.90;99.90;;;;;;4991159;28;20042;-51
2022/03/18 06:41:35;;;;;;;16.85;7.60;;;5.60;99.90;;;;;;4992814;28;20644;-55
2022/03/18 06:44:00;;;;;;;12.52;7.10;;;7.30;99.90;;;;;;4990878;28;20065;-55
2022/03/18 06:46:26;;;;;;;11.10;5.80;;;6.70;99.90;;;;;;4992424;28;20462;-54
2022/03/18 06:48:52;;;;;;;11.50;6.03;;;7.20;99.90;;;;;;4993669;28;20045;-56
2022/03/18 06:51:18;;;;;;;12.27;6.25;;;8.10;99.90;;;;;;4989769;28;20117;-56
2022/03/18 06:53:44;;;;;;;13.25;6.15;;;8.80;99.90;;;;;;4990893;28;20038;-57
2022/03/18 06:56:15;;;;;;;13.07;6.00;;;9.20;99.90;;;;;;4991219;28;20073;-57
2022/03/18 06:58:42;;;;;;;9.77;5.20;;;9.50;99.90;;;;;;4993031;28;20128;-56
2022/03/18 07:01:07;;;;;;;11.07;6.38;;;10.70;99.90;;;;;;4976628;28;20074;-56
2022/03/18 07:03:35;;;;;;;13.77;6.18;;;10.20;99.90;;;;;;4974920;28;20042;-57
2022/03/18 07:06:01;;;;;;;13.68;6.60;;;10.90;99.90;;;;;;4993355;28;20065;-57
2022/03/18 07:08:26;;;;;;;12.10;6.90;;;10.30;99.90;;;;;;4993235;28;20046;-57
2022/03/18 07:10:54;;;;;;;14.50;7.38;;;10.30;99.90;;;;;;4993663;28;20092;-58
2022/03/18 07:13:20;;;;;;;14.48;7.03;;;10.80;99.90;;;;;;4994963;28;20145;-57
2022/03/18 07:15:46;;;;;;;15.10;6.63;;;12.20;99.90;;;;;;4994033;28;20045;-58
2022/03/18 07:18:13;;;;;;;14.73;6.32;;;10.30;99.90;;;;;;4975581;28;20073;-58
2022/03/18 07:20:40;;;;;;;10.65;5.85;;;10.90;99.90;;;;;;4992911;28;20042;-57
2022/03/18 07:23:11;;;;;;;15.43;6.38;;;10.70;99.90;;;;;;4995381;28;20034;-57
2022/03/18 07:25:48;;;;;;;16.02;6.72;;;10.80;99.90;;;;;;4993524;28;20674;-58
2022/03/18 07:28:16;;;;;;;12.18;6.32;;;10.90;99.90;;;;;;4992576;28;20514;-58
2022/03/18 07:30:43;;;;;;;13.45;6.53;;;11.80;99.90;;;;;;4992544;28;20565;-57
2022/03/18 07:33:09;;;;;;;17.10;7.00;;;11.70;99.90;;;;;;4991514;28;20564;-58
2022/03/18 07:35:35;;;;;;;13.50;6.88;;;12.30;99.90;;;;;;4976700;28;20387;-57
2022/03/18 07:38:05;;;;;;;13.80;7.00;;;13.20;99.90;;;;;;4992477;28;21217;-59
2022/03/18 07:40:31;;;;;;;17.90;6.80;;;12.70;99.90;;;;;;4991423;28;20034;-59
2022/03/18 07:42:57;;;;;;;17.08;6.68;;;12.00;99.90;;;;;;4992796;28;20411;-58
2022/03/18 07:45:28;;;;;;;17.80;6.95;;;12.40;99.90;;;;;;4992240;28;20534;-59
2022/03/18 07:47:56;;;;;;;19.40;7.65;;;12.90;99.90;;;;;;4992073;28;20064;-58
2022/03/18 07:50:24;;;;;;;16.77;6.10;;;11.80;99.90;;;;;;4992286;28;21031;-58
2022/03/18 07:52:57;;;;;;;12.85;6.18;;;11.90;99.90;;;;;;4992369;28;20236;-57
2022/03/18 07:55:26;;;;;;;15.00;6.00;;;12.20;99.90;;;;;;4990921;28;20597;-58
2022/03/18 07:57:54;;;;;;;12.10;5.53;;;13.30;99.90;;;;;;4975377;28;20589;-58
2022/03/18 08:00:22;;;;;;;18.42;5.68;;;13.10;99.90;;;;;;4990885;28;20046;-58
2022/03/18 08:02:50;;;;;;;13.93;5.70;;;13.50;99.90;;;;;;4992112;28;20095;-58
2022/03/18 08:05:17;;;;;;;10.35;5.25;;;14.20;99.90;;;;;;4972109;28;20030;-59
2022/03/18 08:07:44;;;;;;;11.93;5.28;;;14.80;99.90;;;;;;4992351;28;20044;-60
2022/03/18 08:10:10;;;;;;;13.60;5.55;;;15.70;99.90;;;;;;4991869;28;20049;-59
2022/03/18 08:12:38;;;;;;;14.05;6.45;;;16.40;99.90;;;;;;4992103;28;20741;-58
2022/03/18 08:15:14;;;;;;;11.90;5.57;;;16.40;99.90;;;;;;4991134;28;20072;-60
2022/03/18 08:17:42;;;;;;;14.90;5.40;;;16.20;99.90;;;;;;4993015;28;20049;-59
2022/03/18 08:20:10;;;;;;;17.40;5.70;;;16.00;99.90;;;;;;4991277;28;20042;-59
2022/03/18 08:22:36;;;;;;;13.50;5.22;;;15.30;99.90;;;;;;4991543;28;20041;-59
2022/03/18 08:25:05;;;;;;;14.88;5.25;;;14.80;99.90;;;;;;4991758;28;20568;-59
2022/03/18 08:27:32;;;;;;;18.13;6.20;;;14.70;99.90;;;;;;4992782;28;20048;-59
2022/03/18 08:29:59;;;;;;;20.42;7.18;;;16.00;99.90;;;;;;4991489;28;20046;-59
2022/03/18 08:32:27;;;;;;;17.50;5.72;;;14.20;99.90;;;;;;4991849;28;20042;-59
2022/03/18 08:34:54;;;;;;;18.45;5.85;;;14.90;99.90;;;;;;4991344;28;20057;-59
2022/03/18 08:37:56;;;;;;;17.08;5.63;;;15.00;99.90;;;;;;4992703;28;20046;-58
2022/03/18 08:40:06;;;;;;;16.58;6.65;;;13.60;99.90;;;;;;4993576;28;20390;-59
2022/03/18 08:42:32;;;;;;;19.13;5.80;;;13.60;99.90;;;;;;4991326;28;20541;-59
2022/03/18 08:44:58;;;;;;;18.00;6.05;;;13.10;99.90;;;;;;4991794;28;20034;-59
2022/03/18 08:47:26;;;;;;;14.93;5.30;;;13.50;99.90;;;;;;4974914;28;20073;-59
2022/03/18 08:49:52;;;;;;;22.63;6.10;;;14.60;99.90;;;;;;4991142;28;20049;-59
2022/03/18 08:52:17;;;;;;;20.38;5.97;;;15.00;99.90;;;;;;4991436;28;20048;-61
2022/03/18 08:54:43;;;;;;;20.42;5.68;;;14.30;99.90;;;;;;4991203;28;20435;-59
2022/03/18 08:57:10;;;;;;;21.05;5.30;;;14.10;99.90;;;;;;4990708;28;20056;-58
2022/03/18 08:59:35;;;;;;;20.58;5.63;;;16.50;99.90;;;;;;4992222;28;20069;-59
2022/03/18 09:02:01;;;;;;;24.05;6.30;;;16.60;99.90;;;;;;4992395;28;20050;-59
2022/03/18 09:04:27;;;;;;;15.55;5.75;;;15.00;99.90;;;;;;4991346;28;20587;-59
2022/03/18 09:06:53;;;;;;;13.55;5.30;;;15.30;99.90;;;;;;4994463;28;20041;-59
2022/03/18 09:09:18;;;;;;;16.45;5.60;;;17.40;99.90;;;;;;4994526;28;20038;-59
2022/03/18 09:11:44;;;;;;;16.55;6.15;;;16.10;99.90;;;;;;4995148;28;20041;-60
2022/03/18 09:14:11;;;;;;;16.42;5.50;;;15.70;99.90;;;;;;4994810;28;20041;-59
2022/03/18 09:16:38;;;;;;;16.73;5.50;;;15.20;99.90;;;;;;4995022;28;20054;-59
2022/03/18 09:19:07;;;;;;;13.95;5.45;;;16.00;99.90;;;;;;4993625;28;20050;-59
2022/03/18 09:21:33;;;;;;;18.02;5.15;;;14.90;99.90;;;;;;4994230;28;20045;-60
2022/03/18 09:24:04;;;;;;;16.40;6.05;;;16.60;99.90;;;;;;4995678;28;20389;-60
2022/03/18 09:26:31;;;;;;;18.25;6.25;;;15.70;99.90;;;;;;4992735;28;20349;-59
2022/03/18 09:28:56;;;;;;;20.00;6.13;;;15.40;99.90;;;;;;4995050;28;20580;-59
2022/03/18 09:31:23;;;;;;;24.80;6.15;;;15.20;99.90;;;;;;4993620;28;20033;-59
2022/03/18 09:33:48;;;;;;;25.13;6.70;;;15.50;99.90;;;;;;4994065;28;20121;-59
2022/03/18 09:36:18;;;;;;;17.13;6.13;;;16.00;99.90;;;;;;4993764;28;20044;-60
2022/03/18 09:38:46;;;;;;;22.25;6.05;;;16.20;99.90;;;;;;4996080;28;20125;-59
2022/03/18 09:41:11;;;;;;;19.50;5.68;;;16.40;99.90;;;;;;4976115;28;20069;-59
2022/03/18 09:43:40;;;;;;;22.00;6.10;;;17.00;99.90;;;;;;4995161;28;20076;-59
2022/03/18 09:46:08;;;;;;;19.60;5.35;;;17.00;99.90;;;;;;4996078;28;20044;-59
2022/03/18 09:48:35;;;;;;;19.70;6.38;;;17.70;99.90;;;;;;4996063;28;20077;-60
2022/03/18 09:51:01;;;;;;;20.02;6.13;;;17.70;99.90;;;;;;4995646;28;20322;-59
2022/03/18 09:53:27;;;;;;;17.45;6.57;;;19.00;99.90;;;;;;4980207;28;20045;-59
2022/03/18 09:55:53;;;;;;;16.77;6.68;;;18.00;99.90;;;;;;4995387;28;20038;-59
2022/03/18 09:58:23;;;;;;;19.80;7.15;;;19.10;99.90;;;;;;4995618;28;20030;-59
2022/03/18 10:00:57;;;;;;;25.90;7.60;;;16.80;99.90;;;;;;4976371;28;20061;-59
2022/03/18 10:03:34;;;;;;;20.98;7.45;;;16.10;99.90;;;;;;4992228;28;20938;-59
2022/03/18 10:06:02;;;;;;;25.23;6.22;;;15.10;99.90;;;;;;4994219;28;20467;-59
2022/03/18 10:08:48;;;;;;;23.45;6.88;;;16.50;99.90;;;;;;4993645;28;20049;-59
2022/03/18 10:11:19;;;;;;;20.58;6.53;;;14.80;99.90;;;;;;4993631;28;20036;-59
2022/03/18 10:14:02;;;;;;;24.95;9.40;;;14.50;99.90;;;;;;4993644;28;20060;-58
2022/03/18 10:16:41;;;;;;;14.75;5.53;;;14.40;99.90;;;;;;4992171;28;20049;-59
2022/03/18 10:19:20;;;;;;;20.55;7.18;;;14.40;99.90;;;;;;4975248;28;20108;-57
2022/03/18 10:21:59;;;;;;;14.93;4.93;;;14.20;99.90;;;;;;4994678;28;20565;-59
2022/03/18 10:24:36;;;;;;;18.45;6.40;;;14.50;99.90;;;;;;4993671;28;20052;-59
2022/03/18 10:27:19;;;;;;;17.10;5.72;;;14.40;99.90;;;;;;4993767;28;20049;-59
2022/03/18 10:29:55;;;;;;;23.20;6.75;;;14.40;99.90;;;;;;4992970;28;20399;-59
2022/03/18 10:32:24;;;;;;;16.23;5.53;;;14.30;99.90;;;;;;4992132;28;20507;-58
2022/03/18 10:37:40;;;;;;;20.35;6.28;;;14.30;99.90;;;;;;4991610;28;20256;-59
2022/03/18 10:40:07;;;;;;;23.45;6.20;;;15.80;99.90;;;;;;4993505;28;20449;-59
2022/03/18 10:42:33;;;;;;;18.73;5.80;;;14.70;99.90;;;;;;4992688;28;20042;-59
2022/03/18 10:45:00;;;;;;;19.45;5.97;;;16.00;99.90;;;;;;4992973;28;20038;-59
2022/03/18 10:47:31;;;;;;;18.60;5.57;;;14.40;99.90;;;;;;4993544;28;20042;-58
2022/03/18 10:50:23;;;;;;;20.48;6.80;;;16.90;99.90;;;;;;4993371;28;20136;-59
2022/03/18 10:52:49;;;;;;;15.98;5.47;;;14.60;99.90;;;;;;4895744;29;20289;-59
2022/03/18 10:55:20;;;;;;;19.55;5.60;;;14.70;99.90;;;;;;4894715;29;20044;-59
2022/03/18 10:58:06;;;;;;;19.33;6.45;;;14.80;99.90;;;;;;4894597;29;20670;-59
2022/03/18 11:00:34;;;;;;;19.08;6.30;;;15.00;99.90;;;;;;4894370;29;20048;-59
2022/03/18 11:03:02;;;;;;;17.08;6.03;;;14.70;99.90;;;;;;4895152;29;20510;-58
2022/03/18 11:05:34;;;;;;;19.42;6.40;;;14.70;99.90;;;;;;4894221;29;21659;-58
2022/03/18 11:08:02;;;;;;;21.80;6.13;;;15.00;99.90;;;;;;4894602;29;20071;-59
2022/03/18 11:13:14;;;;;;;17.27;4.97;;;16.90;99.90;;;;;;4894465;29;20139;-58
2022/03/18 11:15:43;;;;;;;21.58;5.32;;;15.00;99.90;;;;;;4893355;29;20052;-58
2022/03/18 11:18:11;;;;;;;19.33;5.57;;;15.10;99.90;;;;;;4893520;29;20039;-58
2022/03/18 11:20:42;;;;;;;14.85;4.75;;;15.80;99.90;;;;;;4892141;29;20086;-58
2022/03/18 11:23:27;;;;;;;18.92;4.80;;;15.00;99.90;;;;;;4893363;29;20048;-58
2022/03/18 11:25:59;;;;;;;17.90;5.53;;;15.20;99.90;;;;;;4893308;29;20076;-58
2022/03/18 11:28:25;;;;;;;16.83;4.43;;;15.10;99.90;;;;;;4893726;29;20744;-58
2022/03/18 11:31:06;;;;;;;17.77;5.95;;;15.30;99.90;;;;;;4983939;28;20057;-59
2022/03/18 11:33:34;;;;;;;15.93;4.57;;;15.50;99.90;;;;;;4991809;28;20457;-58
2022/03/18 11:36:08;;;;;;;19.95;6.00;;;15.80;99.90;;;;;;4990896;28;20507;-58
2022/03/18 11:38:55;;;;;;;14.10;4.75;;;15.20;99.90;;;;;;4990644;28;20302;-58
2022/03/18 11:41:43;;;;;;;18.70;5.35;;;15.40;99.90;;;;;;4990389;28;20042;-58
2022/03/18 11:44:09;;;;;;;14.48;5.18;;;15.30;99.90;;;;;;4992645;28;20039;-58
2022/03/18 11:46:34;;;;;;;14.20;4.95;;;15.30;99.90;;;;;;4992770;28;20038;-58
2022/03/18 11:49:05;;;;;;;23.13;6.85;;;15.40;99.90;;;;;;4990732;28;20045;-58
2022/03/18 11:51:42;;;;;;;18.35;5.78;;;15.70;99.90;;;;;;4990438;28;20131;-58
2022/03/18 11:54:16;;;;;;;14.82;4.93;;;16.40;99.90;;;;;;4993088;28;20044;-58
2022/03/18 11:56:49;;;;;;;16.98;5.10;;;16.10;99.90;;;;;;4991741;28;20579;-58
2022/03/18 11:59:24;;;;;;;19.05;5.13;;;15.40;99.90;;;;;;4992394;28;20415;-59
2022/03/18 12:01:54;;;;;;;17.33;5.32;;;15.40;99.90;;;;;;4993225;28;20112;-58
2022/03/18 12:04:48;;;;;;;12.77;4.10;;;15.50;99.90;;;;;;4992176;28;20100;-58
2022/03/18 12:07:18;;;;;;;11.32;3.53;;;16.00;99.90;;;;;;4994514;28;20050;-58
2022/03/18 12:10:05;;;;;;;20.05;4.35;;;15.00;99.90;;;;;;4975609;28;20048;-58
2022/03/18 12:12:42;;;;;;;17.38;4.68;;;16.10;99.90;;;;;;4992377;28;20136;-58
2022/03/18 12:15:10;;;;;;;16.38;3.75;;;14.90;99.90;;;;;;4993737;28;20037;-58
2022/03/18 12:17:51;;;;;;;29.75;6.55;;;15.20;99.90;;;;;;4994061;28;20438;-58
2022/03/18 12:20:20;;;;;;;21.15;4.35;;;15.30;99.90;;;;;;4991414;28;20045;-58
2022/03/18 12:22:49;;;;;;;30.20;5.03;;;15.20;99.90;;;;;;4992477;28;20599;-58
2022/03/18 12:25:16;;;;;;;16.83;4.20;;;15.40;99.90;;;;;;4991945;28;20747;-58
2022/03/18 12:27:44;;;;;;;13.63;4.18;;;16.50;99.90;;;;;;4993867;28;20050;-58
2022/03/18 12:30:30;;;;;;;16.77;4.28;;;16.20;99.90;;;;;;4976084;28;20034;-58
2022/03/18 12:33:01;;;;;;;18.98;5.13;;;15.70;99.90;;;;;;4990962;28;20045;-58
2022/03/18 12:35:45;;;;;;;17.77;5.15;;;17.10;99.90;;;;;;4989701;28;20062;-58
2022/03/18 12:38:16;;;;;;;16.23;4.13;;;15.00;99.90;;;;;;4990690;28;20045;-58
2022/03/18 12:40:58;;;;;;;17.15;4.75;;;15.00;99.90;;;;;;4991576;28;20050;-59
2022/03/18 12:43:25;;;;;;;;;;;16.30;99.90;;;;;;4995528;28;20038;-58
2022/03/18 12:45:51;;;;;;;21.52;4.63;;;14.70;99.90;;;;;;4995652;28;20298;-59
2022/03/18 12:48:21;;;;;;;20.55;4.55;;;14.90;99.90;;;;;;4996127;28;20046;-58
2022/03/18 12:50:49;;;;;;;15.73;4.32;;;15.00;99.90;;;;;;4993775;28;20509;-58
2022/03/18 12:53:23;;;;;;;19.50;4.95;;;15.00;99.90;;;;;;4995412;28;20372;-58
2022/03/18 12:55:54;;;;;;;24.65;4.57;;;15.10;99.90;;;;;;4995072;28;20042;-58
2022/03/18 12:58:22;;;;;;;15.98;4.07;;;14.80;99.90;;;;;;4994659;28;20049;-59
2022/03/18 13:00:55;;;;;;;15.15;3.67;;;16.90;99.90;;;;;;4995280;28;20053;-58
2022/03/18 13:03:29;;;;;;;17.05;4.72;;;14.80;99.90;;;;;;4993677;28;20099;-59
2022/03/18 13:06:05;;;;;;;13.32;3.60;;;14.50;99.90;;;;;;4977411;28;20494;-59
2022/03/18 13:08:34;;;;;;;17.58;4.13;;;14.30;99.90;;;;;;4995487;28;20417;-59
2022/03/18 13:11:03;;;;;;;20.90;5.00;;;14.30;99.90;;;;;;4996088;28;20112;-58
2022/03/18 13:13:30;;;;;;;23.15;4.45;;;14.50;99.90;;;;;;4994459;28;20050;-58
2022/03/18 13:16:04;;;;;;;19.58;3.67;;;16.40;99.90;;;;;;4994018;28;20096;-58
2022/03/18 13:18:32;;;;;;;20.27;4.55;;;14.40;99.90;;;;;;4995207;28;20057;-59
2022/03/18 13:21:05;;;;;;;19.67;4.43;;;14.10;99.90;;;;;;4994976;28;20088;-59
2022/03/18 13:23:33;;;;;;;20.50;4.43;;;14.10;99.90;;;;;;4976977;28;20050;-59
2022/03/18 13:25:59;;;;;;;21.52;4.68;;;16.20;99.90;;;;;;4996617;28;20466;-58
2022/03/18 13:28:26;;;;;;;16.10;4.50;;;14.20;99.90;;;;;;4993996;28;20034;-59
2022/03/18 13:33:43;;;;;;;20.15;4.28;;;14.60;99.90;;;;;;4996036;28;20056;-59
2022/03/18 13:36:38;;;;;;;18.70;4.13;;;14.30;99.90;;;;;;4996149;28;20049;-58
2022/03/18 13:39:19;;;;;;;22.05;3.97;;;15.20;99.90;;;;;;4996029;28;20034;-58